Time;durP1;ratioP1;P1;durP2;ratioP2;P2;SDS_P1;SDS_P2;PMS_P1;PMS_P2;Temp;Humidity;BMP_temperature;BMP_pressure;BME280_temperature;BME280_humidity;BME280_pressure;Samples;Min_cycle;Max_cycle;Signal;HPM_P1;HPM_P2
2023/08/18 00:00:22;;;;;;;;;;;;;;;28.42;38.32;96860.22;4243673;27;7322;-69
2023/08/18 00:02:25;;;;;;;;;;;;;;;28.42;38.87;96851.25;4235084;28;5614;-69
2023/08/18 00:04:28;;;;;;;;;;;;;;;28.38;38.36;96845.63;4235209;28;5619;-69
2023/08/18 00:06:31;;;;;;;;;;;;;;;28.39;38.42;96851.88;4243437;27;5828;-69
2023/08/18 00:08:34;;;;;;;;;;;;;;;28.40;38.35;96853.47;4234893;28;5614;-69
2023/08/18 00:10:36;;;;;;;;;;;;;;;28.39;38.54;96858.13;4238094;27;5689;-69
2023/08/18 00:12:39;;;;;;;;;;;;;;;28.37;38.36;96854.09;4239713;27;5701;-69
2023/08/18 00:14:43;;;;;;;;;;;;;;;28.34;38.52;96860.16;4242935;27;5669;-69
2023/08/18 00:16:46;;;;;;;;;;;;;;;28.32;38.39;96855.03;4242761;27;5590;-69
2023/08/18 00:18:49;;;;;;;;;;;;;;;28.34;38.62;96855.53;4243393;27;5574;-69
2023/08/18 00:20:52;;;;;;;;;;;;;;;28.33;38.54;96856.63;4252186;27;5699;-69
2023/08/18 00:22:55;;;;;;;;;;;;;;;28.32;38.69;96854.22;4245355;27;5597;-70
2023/08/18 00:24:58;;;;;;;;;;;;;;;28.31;38.59;96856.13;4243108;27;5597;-70
2023/08/18 00:27:01;;;;;;;;;;;;;;;28.31;38.44;96858.84;4243272;27;5700;-69
2023/08/18 00:29:03;;;;;;;;;;;;;;;28.27;38.50;96867.88;4241398;27;5606;-69
2023/08/18 00:31:07;;;;;;;;;;;;;;;28.24;38.50;96860.34;4243197;27;5661;-69
2023/08/18 00:33:10;;;;;;;;;;;;;;;28.26;38.55;96847.25;4242868;27;5687;-69
2023/08/18 00:35:13;;;;;;;;;;;;;;;28.26;38.53;96853.50;4229820;28;5610;-69
2023/08/18 00:37:16;;;;;;;;;;;;;;;28.25;38.64;96846.44;4234409;28;5710;-69
2023/08/18 00:39:18;;;;;;;;;;;;;;;28.24;38.40;96844.84;4234578;28;5609;-69
2023/08/18 00:41:21;;;;;;;;;;;;;;;28.26;38.61;96850.78;4244168;27;5843;-70
2023/08/18 00:43:24;;;;;;;;;;;;;;;28.25;38.35;96849.16;4241258;27;6700;-69
2023/08/18 00:45:29;;;;;;;;;;;;;;;28.22;38.47;96841.63;4242973;27;5816;-69
2023/08/18 00:47:33;;;;;;;;;;;;;;;28.21;38.64;96850.91;4245628;27;5757;-69
2023/08/18 00:49:36;;;;;;;;;;;;;;;28.20;38.77;96851.19;4239496;27;5602;-69
2023/08/18 00:51:41;;;;;;;;;;;;;;;28.19;38.74;96853.09;4246679;27;5586;-70
2023/08/18 00:53:45;;;;;;;;;;;;;;;28.21;38.64;96850.09;4237766;27;6049;-69
2023/08/18 00:55:48;;;;;;;;;;;;;;;28.19;38.70;96852.28;4235910;27;5685;-70
2023/08/18 00:57:52;;;;;;;;;;;;;;;28.18;39.04;96851.47;4234254;28;5603;-69
2023/08/18 00:59:56;;;;;;;;;;;;;;;28.19;38.85;96849.56;4240256;27;5678;-72
2023/08/18 01:02:02;;;;;;;;;;;;;;;28.21;38.86;96842.75;4235773;27;5606;-69
2023/08/18 01:04:07;;;;;;;;;;;;;;;28.21;39.16;96853.63;4234006;28;6291;-69
2023/08/18 01:06:10;;;;;;;;;;;;;;;28.19;39.18;96846.84;4242522;27;5581;-70
2023/08/18 01:08:13;;;;;;;;;;;;;;;28.16;39.27;96851.00;4225953;28;5695;-70
2023/08/18 01:10:16;;;;;;;;;;;;;;;28.14;39.39;96842.34;4233926;28;5679;-69
2023/08/18 01:12:29;;;;;;;;;;;;;;;28.12;39.29;96844.56;4234002;27;5605;-70
2023/08/18 01:14:43;;;;;;;;;;;;;;;28.13;39.60;96846.16;4242326;27;5692;-69
2023/08/18 01:16:52;;;;;;;;;;;;;;;28.09;39.36;96845.19;4242579;27;5718;-69
2023/08/18 01:18:56;;;;;;;;;;;;;;;28.06;39.56;96846.56;4234281;28;5634;-69
2023/08/18 01:21:04;;;;;;;;;;;;;;;28.04;39.68;96840.63;4240479;27;5594;-69
2023/08/18 01:23:09;;;;;;;;;;;;;;;28.00;39.88;96834.22;4251163;27;5582;-69
2023/08/18 01:25:32;;;;;;;;;;;;;;;28.01;39.91;96843.16;4225394;28;5594;-69
2023/08/18 01:27:57;;;;;;;;;;;;;;;28.02;39.85;96842.06;4248360;27;5682;-69
2023/08/18 01:30:00;;;;;;;;;;;;;;;27.95;39.69;96847.09;4235830;27;5612;-69
2023/08/18 01:32:07;;;;;;;;;;;;;;;27.84;39.77;96839.16;4234160;27;6526;-69
2023/08/18 01:34:16;;;;;;;;;;;;;;;27.85;39.98;96843.47;4242048;27;5606;-69
2023/08/18 01:36:20;;;;;;;;;;;;;;;27.85;40.05;96838.03;4232102;27;5781;-69
2023/08/18 01:38:25;;;;;;;;;;;;;;;27.84;40.08;96841.88;4242361;27;5593;-69
2023/08/18 01:40:30;;;;;;;;;;;;;;;27.87;39.93;96845.09;4242677;27;5589;-69
2023/08/18 01:42:34;;;;;;;;;;;;;;;27.88;39.98;96842.09;4245988;27;5704;-69
2023/08/18 01:44:37;;;;;;;;;;;;;;;27.88;39.90;96835.84;4240706;27;5706;-69
2023/08/18 01:46:41;;;;;;;;;;;;;;;27.85;40.06;96842.66;4250125;27;5601;-69
2023/08/18 01:48:44;;;;;;;;;;;;;;;27.79;39.89;96841.97;4241785;27;5634;-69
2023/08/18 01:50:47;;;;;;;;;;;;;;;27.78;40.01;96840.38;4240657;27;5591;-70
2023/08/18 01:52:50;;;;;;;;;;;;;;;27.77;39.91;96833.34;4236842;28;5589;-69
2023/08/18 01:54:54;;;;;;;;;;;;;;;27.74;39.99;96841.25;4236616;28;5592;-70
2023/08/18 01:56:57;;;;;;;;;;;;;;;27.74;40.05;96835.81;4252096;27;5571;-70
2023/08/18 01:59:04;;;;;;;;;;;;;;;27.74;39.87;96830.41;4247016;27;5335;-70
2023/08/18 02:01:07;;;;;;;;;;;;;;;27.74;39.66;96833.91;4253563;27;5707;-69
2023/08/18 02:03:09;;;;;;;;;;;;;;;27.67;40.02;96836.25;4245379;27;5582;-69
2023/08/18 02:05:12;;;;;;;;;;;;;;;27.61;40.10;96831.97;4228566;27;5817;-69
2023/08/18 02:07:15;;;;;;;;;;;;;;;27.60;40.00;96830.38;4247810;27;5603;-70
2023/08/18 02:09:18;;;;;;;;;;;;;;;27.61;40.05;96829.25;4245302;27;5717;-70
2023/08/18 02:11:22;;;;;;;;;;;;;;;27.59;40.07;96826.06;4245180;27;5605;-69
2023/08/18 02:13:25;;;;;;;;;;;;;;;27.57;40.13;96820.13;4244740;27;5597;-69
2023/08/18 02:15:26;;;;;;;;;;;;;;;27.54;39.91;96826.97;4242921;27;5698;-70
2023/08/18 02:17:30;;;;;;;;;;;;;;;27.51;39.62;96822.13;4239359;27;5689;-70
2023/08/18 02:19:33;;;;;;;;;;;;;;;27.50;39.71;96814.28;4245175;27;5613;-70
2023/08/18 02:21:36;;;;;;;;;;;;;;;27.47;39.64;96831.19;4253961;27;5602;-69
2023/08/18 02:23:39;;;;;;;;;;;;;;;27.44;39.75;96827.16;4241208;27;5597;-69
2023/08/18 02:25:42;;;;;;;;;;;;;;;27.44;39.86;96826.34;4244630;27;5740;-70
2023/08/18 02:27:46;;;;;;;;;;;;;;;27.43;39.85;96824.75;4249745;27;5590;-70
2023/08/18 02:29:49;;;;;;;;;;;;;;;27.45;39.64;96830.69;4239640;27;6294;-70
2023/08/18 02:31:52;;;;;;;;;;;;;;;27.51;39.78;96834.88;4236703;28;5613;-70
2023/08/18 02:33:55;;;;;;;;;;;;;;;27.52;39.50;96836.50;4236734;28;5610;-70
2023/08/18 02:35:59;;;;;;;;;;;;;;;27.54;39.74;96834.31;4234564;28;5714;-70
2023/08/18 02:38:02;;;;;;;;;;;;;;;27.55;39.56;96830.47;4238326;27;5741;-69
2023/08/18 02:40:07;;;;;;;;;;;;;;;27.56;39.72;96837.53;4243493;27;5601;-70
2023/08/18 02:42:09;;;;;;;;;;;;;;;27.57;39.85;96836.41;4244827;27;5616;-69
2023/08/18 02:44:14;;;;;;;;;;;;;;;27.56;39.69;96837.53;4236445;28;5585;-70
2023/08/18 02:46:17;;;;;;;;;;;;;;;27.57;39.80;96830.97;4252620;27;5815;-70
2023/08/18 02:48:19;;;;;;;;;;;;;;;27.59;39.53;96845.06;4236431;28;5660;-70
2023/08/18 02:50:22;;;;;;;;;;;;;;;27.61;39.90;96839.31;4244710;27;5574;-69
2023/08/18 02:52:25;;;;;;;;;;;;;;;27.59;40.18;96842.34;4243892;27;5673;-70
2023/08/18 02:54:28;;;;;;;;;;;;;;;27.56;40.14;96840.25;4238497;27;5629;-70
2023/08/18 02:56:31;;;;;;;;;;;;;;;27.51;40.54;96843.03;4241653;27;5587;-71
2023/08/18 02:58:35;;;;;;;;;;;;;;;27.52;40.53;96841.91;4247725;27;5594;-70
2023/08/18 03:00:41;;;;;;;;;;;;;;;27.50;40.66;96834.09;4249199;27;5609;-69
2023/08/18 03:02:43;;;;;;;;;;;;;;;27.52;40.61;96836.50;4236142;28;5602;-69
2023/08/18 03:04:46;;;;;;;;;;;;;;;27.50;40.49;96836.00;4235828;28;5593;-69
2023/08/18 03:06:49;;;;;;;;;;;;;;;27.48;40.53;96839.00;4241495;27;5582;-69
2023/08/18 03:08:52;;;;;;;;;;;;;;;27.44;40.38;96842.63;4238728;27;5606;-69
2023/08/18 03:10:59;;;;;;;;;;;;;;;27.36;40.27;96840.63;4244286;27;5087;-69
2023/08/18 03:13:03;;;;;;;;;;;;;;;27.33;40.33;96835.78;4244196;27;6380;-69
2023/08/18 03:15:06;;;;;;;;;;;;;;;27.31;40.25;96832.56;4244506;27;5589;-69
2023/08/18 03:17:10;;;;;;;;;;;;;;;27.32;39.95;96834.19;4217254;28;5605;-69
2023/08/18 03:19:13;;;;;;;;;;;;;;;27.33;40.20;96835.78;4244092;27;5984;-69
2023/08/18 03:21:16;;;;;;;;;;;;;;;27.33;39.83;96831.16;4236170;28;5617;-69
2023/08/18 03:23:19;;;;;;;;;;;;;;;27.32;39.80;96828.75;4244003;27;5586;-69
2023/08/18 03:25:23;;;;;;;;;;;;;;;27.28;39.75;96829.34;4237151;27;7671;-69
2023/08/18 03:27:25;;;;;;;;;;;;;;;27.24;39.77;96838.38;4244087;27;5597;-68
2023/08/18 03:29:29;;;;;;;;;;;;;;;27.18;40.10;96829.53;4240126;27;5718;-70
2023/08/18 03:31:32;;;;;;;;;;;;;;;27.18;40.06;96832.25;4234407;28;5696;-69
2023/08/18 03:33:37;;;;;;;;;;;;;;;27.20;40.01;96838.19;4235655;28;5700;-69
2023/08/18 03:35:39;;;;;;;;;;;;;;;27.22;39.90;96840.59;4228511;28;5681;-69
2023/08/18 03:37:43;;;;;;;;;;;;;;;27.24;40.02;96838.38;4248027;27;5566;-69
2023/08/18 03:39:46;;;;;;;;;;;;;;;27.26;40.08;96847.03;4241035;27;5578;-69
2023/08/18 03:41:49;;;;;;;;;;;;;;;27.25;40.10;96834.56;4238579;27;5696;-69
2023/08/18 03:43:51;;;;;;;;;;;;;;;27.24;40.00;96847.31;4243775;27;5788;-69
2023/08/18 03:45:55;;;;;;;;;;;;;;;27.24;40.32;96844.63;4225361;28;5608;-69
2023/08/18 03:47:58;;;;;;;;;;;;;;;27.25;40.52;96835.38;4244042;27;6471;-70
2023/08/18 03:50:04;;;;;;;;;;;;;;;27.22;40.35;96846.03;4235542;28;5712;-69
2023/08/18 03:52:07;;;;;;;;;;;;;;;27.18;40.74;96850.41;4243472;27;5609;-69
2023/08/18 03:54:09;;;;;;;;;;;;;;;27.19;40.52;96841.19;4234859;27;5601;-69
2023/08/18 08:34:10;;;;;;;;;;;;;;;25.56;49.81;96938.16;4230783;27;10278;-60
2023/08/18 08:36:13;;;;;;;;;;;;;;;25.83;49.63;96941.19;4229453;28;5654;-61
2023/08/18 08:38:16;;;;;;;;;;;;;;;26.02;49.22;96933.09;4231321;28;5680;-61
2023/08/18 08:40:20;;;;;;;;;;;;;;;26.20;48.91;96936.97;4231317;28;5666;-62
2023/08/18 08:42:23;;;;;;;;;;;;;;;26.34;48.69;96935.16;4231234;28;6170;-61
2023/08/18 08:44:26;;;;;;;;;;;;;;;26.46;48.65;96936.66;4230316;28;6014;-61
2023/08/18 08:46:31;;;;;;;;;;;;;;;26.57;48.53;96930.81;4231561;28;5664;-61
2023/08/18 08:48:38;;;;;;;;;;;;;;;26.67;48.49;96927.97;4231511;28;5775;-60
2023/08/18 08:50:47;;;;;;;;;;;;;;;26.78;48.14;96939.47;4230703;28;5771;-61
2023/08/18 08:52:50;;;;;;;;;;;;;;;26.87;48.00;96936.91;4230193;28;5697;-60
2023/08/18 08:54:59;;;;;;;;;;;;;;;26.95;47.93;96933.50;4230923;28;5740;-61
2023/08/18 08:57:05;;;;;;;;;;;;;;;27.04;47.65;96934.50;4231492;28;5661;-61
2023/08/18 08:59:12;;;;;;;;;;;;;;;27.08;47.62;96935.53;4223636;28;5664;-61
2023/08/18 09:01:20;;;;;;;;;;;;;;;27.12;47.57;96927.59;4231393;28;5672;-61
2023/08/18 09:03:24;;;;;;;;;;;;;;;27.14;47.05;96930.81;4231041;28;7395;-61
2023/08/18 09:05:28;;;;;;;;;;;;;;;27.14;47.10;96934.34;4231382;28;5778;-61
2023/08/18 09:07:33;;;;;;;;;;;;;;;27.15;46.95;96927.81;4230659;28;5675;-61
2023/08/18 09:09:35;;;;;;;;;;;;;;;27.18;46.99;96927.25;4230803;28;5668;-61
2023/08/18 09:11:39;;;;;;;;;;;;;;;27.24;46.82;96934.19;4231086;28;5671;-61
2023/08/18 09:13:42;;;;;;;;;;;;;;;27.26;46.66;96934.69;4230946;28;5800;-61
2023/08/18 09:15:45;;;;;;;;;;;;;;;27.28;46.65;96927.03;4231343;28;5668;-61
2023/08/18 09:17:50;;;;;;;;;;;;;;;27.33;46.20;96933.50;4231327;28;5684;-61
2023/08/18 09:19:56;;;;;;;;;;;;;;;27.36;46.21;96924.75;4230240;28;6465;-61
2023/08/18 09:22:02;;;;;;;;;;;;;;;27.36;45.85;96928.28;4228105;28;5770;-61
2023/08/18 09:24:07;;;;;;;;;;;;;;;27.39;45.50;96916.00;4230517;28;7288;-61
2023/08/18 09:26:12;;;;;;;;;;;;;;;27.39;45.39;96921.44;4230608;28;6381;-62
2023/08/18 09:28:14;;;;;;;;;;;;;;;27.42;45.36;96926.28;4228629;28;5812;-62
2023/08/18 09:30:17;;;;;;;;;;;;;;;27.44;45.34;96922.19;4228946;28;5779;-61
2023/08/18 09:32:23;;;;;;;;;;;;;;;27.48;45.25;96922.38;4230131;28;5672;-61
2023/08/18 09:34:25;;;;;;;;;;;;;;;27.51;45.26;96929.91;4222901;28;5758;-61
2023/08/18 09:36:28;;;;;;;;;;;;;;;27.54;45.22;96926.63;4219023;28;5681;-61
2023/08/18 09:38:39;;;;;;;;;;;;;;;27.59;45.10;96925.72;4217361;28;5687;-61
2023/08/18 09:40:44;;;;;;;;;;;;;;;27.62;44.83;96915.06;4219316;28;5687;-62
2023/08/18 09:42:51;;;;;;;;;;;;;;;27.63;44.78;96921.28;4215369;28;5714;-61
2023/08/18 09:44:54;;;;;;;;;;;;;;;27.64;44.72;96915.59;4216654;28;5685;-61
2023/08/18 09:46:58;;;;;;;;;;;;;;;27.65;44.40;96914.50;4218514;28;5752;-61
2023/08/18 09:49:04;;;;;;;;;;;;;;;27.66;44.37;96912.59;4216311;28;5675;-61
2023/08/18 09:51:10;;;;;;;;;;;;;;;27.67;44.29;96915.00;4219123;28;5734;-61
2023/08/18 09:53:16;;;;;;;;;;;;;;;27.69;44.09;96914.69;4202604;28;6499;-61
2023/08/18 09:55:24;;;;;;;;;;;;;;;27.71;43.64;96917.91;4218704;28;5763;-61
2023/08/18 09:57:32;;;;;;;;;;;;;;;27.72;43.73;96909.47;4216118;28;5863;-61
2023/08/18 09:59:41;;;;;;;;;;;;;;;27.74;43.89;96907.25;4218472;28;5858;-62
2023/08/18 10:01:47;;;;;;;;;;;;;;;27.73;43.59;96899.41;4217202;28;5747;-61
2023/08/18 10:03:49;;;;;;;;;;;;;;;27.75;43.33;96902.66;4214256;28;5680;-61
2023/08/18 10:05:53;;;;;;;;;;;;;;;27.77;43.26;96901.25;4216397;28;5772;-61
2023/08/18 10:07:55;;;;;;;;;;;;;;;27.81;42.80;96902.22;4218621;28;5755;-61
2023/08/18 10:09:58;;;;;;;;;;;;;;;27.83;42.01;96899.22;4218367;28;5656;-62
2023/08/18 10:12:02;;;;;;;;;;;;;;;27.82;42.40;96892.97;4216696;28;5975;-61
2023/08/18 10:14:06;;;;;;;;;;;;;;;27.85;42.50;96903.22;4218802;28;6361;-61
2023/08/18 10:16:09;;;;;;;;;;;;;;;27.85;42.18;96892.38;4210458;28;5686;-61
2023/08/18 10:18:12;;;;;;;;;;;;;;;27.88;42.08;96892.91;4215015;28;5744;-61
2023/08/18 10:20:15;;;;;;;;;;;;;;;27.90;41.43;96898.81;4218616;28;5806;-61
2023/08/18 10:22:20;;;;;;;;;;;;;;;27.92;41.42;96888.47;4213666;28;5506;-62
2023/08/18 10:24:23;;;;;;;;;;;;;;;27.89;41.71;96881.72;4216007;28;5615;-62
2023/08/18 10:26:29;;;;;;;;;;;;;;;27.91;41.69;96878.69;4218816;28;5657;-62
2023/08/18 10:28:34;;;;;;;;;;;;;;;27.93;40.99;96881.91;4214376;28;5656;-61
2023/08/18 10:30:39;;;;;;;;;;;;;;;27.90;40.75;96872.47;4214891;28;5643;-62
2023/08/18 10:32:41;;;;;;;;;;;;;;;27.91;40.66;96868.63;4212520;28;5925;-62
2023/08/18 10:34:44;;;;;;;;;;;;;;;27.94;40.90;96867.22;4217343;28;5664;-61
2023/08/18 10:36:47;;;;;;;;;;;;;;;27.97;40.72;96875.56;4218126;28;5756;-64
2023/08/18 10:38:51;;;;;;;;;;;;;;;28.00;40.75;96860.59;4217501;28;5668;-64
2023/08/18 10:40:54;;;;;;;;;;;;;;;28.05;40.85;96869.41;4218176;28;5684;-64
2023/08/18 10:43:05;;;;;;;;;;;;;;;28.10;40.67;96866.63;4215955;28;5708;-63
2023/08/18 10:45:23;;;;;;;;;;;;;;;28.13;40.89;96868.72;4205776;28;5673;-64
2023/08/18 10:47:31;;;;;;;;;;;;;;;28.15;40.70;96862.97;4210812;28;5892;-63
2023/08/18 10:49:35;;;;;;;;;;;;;;;28.19;40.57;96863.16;4215215;28;5842;-63
2023/08/18 10:51:37;;;;;;;;;;;;;;;28.22;40.50;96868.81;4213370;28;5674;-63
2023/08/18 10:53:40;;;;;;;;;;;;;;;28.24;40.53;96868.50;4213994;28;5780;-63
2023/08/18 10:55:44;;;;;;;;;;;;;;;28.25;40.14;96865.47;4207503;28;5694;-64
2023/08/18 10:57:47;;;;;;;;;;;;;;;28.27;40.04;96870.59;4217189;28;5726;-63
2023/08/18 10:59:50;;;;;;;;;;;;;;;28.26;39.86;96858.94;4207722;28;5200;-63
2023/08/18 11:01:53;;;;;;;;;;;;;;;28.28;39.94;96856.72;4210289;28;5738;-64
2023/08/18 11:03:58;;;;;;;;;;;;;;;28.29;39.93;96852.91;4215403;28;5832;-63
2023/08/18 11:06:01;;;;;;;;;;;;;;;28.31;39.89;96856.13;4210440;28;5110;-64
2023/08/18 11:08:05;;;;;;;;;;;;;;;28.32;39.94;96846.06;4217534;28;5683;-63
2023/08/18 11:10:17;;;;;;;;;;;;;;;28.35;39.96;96845.47;4209116;28;5688;-64
2023/08/18 11:12:19;;;;;;;;;;;;;;;28.40;39.91;96845.31;4214385;28;5664;-63
2023/08/18 11:14:22;;;;;;;;;;;;;;;28.41;39.79;96834.13;4216802;28;5668;-63
2023/08/18 11:16:25;;;;;;;;;;;;;;;28.46;39.87;96832.44;4213792;28;5679;-63
2023/08/18 11:18:28;;;;;;;;;;;;;;;28.49;39.82;96831.81;4211018;28;5796;-63
2023/08/18 11:20:32;;;;;;;;;;;;;;;28.53;39.72;96830.06;4205722;28;5889;-64
2023/08/18 11:22:37;;;;;;;;;;;;;;;28.58;39.48;96824.53;4210944;28;5660;-66
2023/08/18 11:24:40;;;;;;;;;;;;;;;28.61;39.51;96826.63;4212100;28;5702;-66
2023/08/18 11:26:43;;;;;;;;;;;;;;;28.63;39.17;96821.69;4212889;28;5665;-68
2023/08/18 11:28:46;;;;;;;;;;;;;;;28.63;39.36;96819.75;4207276;28;5759;-67
2023/08/18 11:30:49;;;;;;;;;;;;;;;28.62;39.30;96817.34;4215087;28;5741;-68
2023/08/18 11:32:53;;;;;;;;;;;;;;;28.64;39.03;96817.84;4217202;28;5799;-67
2023/08/18 11:34:56;;;;;;;;;;;;;;;28.67;38.71;96814.53;4217592;28;5827;-67
2023/08/18 11:37:03;;;;;;;;;;;;;;;28.71;38.66;96815.50;4216039;28;6794;-66
2023/08/18 11:39:08;;;;;;;;;;;;;;;28.74;38.66;96811.38;4213495;28;5810;-65
2023/08/18 11:41:11;;;;;;;;;;;;;;;28.78;38.51;96813.16;4212809;28;5821;-66
2023/08/18 11:43:14;;;;;;;;;;;;;;;28.80;38.41;96808.22;4213240;28;5678;-65
2023/08/18 11:45:17;;;;;;;;;;;;;;;28.81;38.46;96804.38;4213169;28;5497;-66
2023/08/18 11:47:23;;;;;;;;;;;;;;;28.84;38.53;96802.94;4209743;28;5747;-66
2023/08/18 11:49:26;;;;;;;;;;;;;;;28.87;38.54;96807.75;4215278;28;5930;-65
2023/08/18 11:51:28;;;;;;;;;;;;;;;28.91;38.28;96808.81;4213029;28;5861;-65
2023/08/18 11:53:34;;;;;;;;;;;;;;;28.92;38.23;96804.97;4205509;28;5693;-66
2023/08/18 11:55:41;;;;;;;;;;;;;;;28.94;37.80;96805.44;4211496;28;5671;-66
2023/08/18 11:57:46;;;;;;;;;;;;;;;28.96;38.06;96801.28;4209505;28;5872;-66
2023/08/18 11:59:50;;;;;;;;;;;;;;;28.96;38.20;96792.34;4217205;28;5751;-66
2023/08/18 12:01:53;;;;;;;;;;;;;;;28.99;38.00;96797.16;4217080;28;5657;-65
2023/08/18 12:03:57;;;;;;;;;;;;;;;28.99;37.88;96794.41;4210651;28;5684;-68
2023/08/18 12:06:00;;;;;;;;;;;;;;;29.02;37.69;96793.03;4216791;28;5779;-69
2023/08/18 12:08:09;;;;;;;;;;;;;;;29.03;37.49;96794.63;4217029;28;6361;-68
2023/08/18 12:10:13;;;;;;;;;;;;;;;29.04;37.48;96779.91;4210344;28;5671;-68
2023/08/18 12:12:16;;;;;;;;;;;;;;;29.05;37.44;96782.31;4217092;28;5788;-67
2023/08/18 12:14:20;;;;;;;;;;;;;;;29.06;37.50;96777.66;4216964;28;5668;-67
2023/08/18 12:16:23;;;;;;;;;;;;;;;29.09;37.33;96783.28;4208481;28;5760;-67
2023/08/18 12:18:25;;;;;;;;;;;;;;;29.13;37.31;96772.59;4214348;28;5685;-68
2023/08/18 12:20:28;;;;;;;;;;;;;;;29.15;37.33;96775.78;4216991;28;5808;-69
2023/08/18 12:22:31;;;;;;;;;;;;;;;29.17;37.26;96773.56;4216259;28;5815;-69
2023/08/18 12:24:36;;;;;;;;;;;;;;;29.17;37.29;96779.00;4216330;28;5703;-68
2023/08/18 12:26:41;;;;;;;;;;;;;;;29.18;37.12;96775.16;4211873;28;5772;-67
2023/08/18 12:28:44;;;;;;;;;;;;;;;29.19;37.08;96776.75;4213812;28;5657;-67
2023/08/18 12:30:47;;;;;;;;;;;;;;;29.21;36.67;96771.81;4215681;28;5654;-66
2023/08/18 12:32:51;;;;;;;;;;;;;;;29.23;36.82;96783.22;4215502;28;5664;-67
2023/08/18 12:34:54;;;;;;;;;;;;;;;29.24;36.69;96782.09;4215498;28;5680;-66
2023/08/18 12:36:59;;;;;;;;;;;;;;;29.24;36.69;96774.72;4213544;28;5775;-66
2023/08/18 12:39:02;;;;;;;;;;;;;;;29.26;36.70;96774.41;4213548;28;6672;-67
2023/08/18 12:41:05;;;;;;;;;;;;;;;29.28;36.70;96769.44;4207599;28;5996;-66
2023/08/18 12:43:10;;;;;;;;;;;;;;;29.29;36.64;96760.97;4212806;28;5727;-67
2023/08/18 12:45:14;;;;;;;;;;;;;;;29.30;36.61;96764.47;4211630;28;7807;-66
2023/08/18 12:47:16;;;;;;;;;;;;;;;29.32;36.36;96759.53;4214781;28;5669;-66
2023/08/18 12:49:19;;;;;;;;;;;;;;;29.34;36.24;96761.97;4214828;28;5819;-66
2023/08/18 12:51:22;;;;;;;;;;;;;;;29.35;36.23;96756.19;4215078;28;6292;-66
2023/08/18 12:53:28;;;;;;;;;;;;;;;29.38;36.45;96754.75;4215044;28;5672;-66
2023/08/18 12:55:31;;;;;;;;;;;;;;;29.38;36.36;96752.81;4214525;28;5835;-67
2023/08/18 12:57:37;;;;;;;;;;;;;;;29.41;36.35;96751.38;4211152;28;5795;-67
2023/08/18 12:59:41;;;;;;;;;;;;;;;29.41;36.42;96749.47;4210059;28;5680;-66
2023/08/18 13:01:44;;;;;;;;;;;;;;;29.44;36.57;96740.66;4210666;28;5784;-65
2023/08/18 13:03:47;;;;;;;;;;;;;;;29.47;36.32;96739.25;4213687;28;5759;-66
2023/08/18 13:05:50;;;;;;;;;;;;;;;29.48;36.30;96738.97;4214744;28;5673;-66
2023/08/18 13:07:53;;;;;;;;;;;;;;;29.49;36.29;96735.13;4208299;28;5919;-66
2023/08/18 13:09:56;;;;;;;;;;;;;;;29.49;36.36;96726.94;4207560;28;5992;-67
2023/08/18 13:11:59;;;;;;;;;;;;;;;29.53;36.30;96738.00;4213878;28;5818;-66
2023/08/18 13:14:02;;;;;;;;;;;;;;;29.56;36.29;96721.84;4216383;28;5680;-66
2023/08/18 13:16:06;;;;;;;;;;;;;;;29.61;36.05;96722.81;4216416;28;5735;-66
2023/08/18 13:18:09;;;;;;;;;;;;;;;29.61;36.13;96723.59;4212022;28;5874;-66
2023/08/18 13:20:12;;;;;;;;;;;;;;;29.63;36.31;96726.00;4216766;28;5754;-66
2023/08/18 13:22:18;;;;;;;;;;;;;;;29.65;36.24;96721.03;4211826;28;7714;-65
2023/08/18 13:24:22;;;;;;;;;;;;;;;29.70;35.61;96727.16;4207231;28;5942;-67
2023/08/18 13:26:24;;;;;;;;;;;;;;;29.71;35.72;96722.50;4218240;28;6333;-67
2023/08/18 13:28:27;;;;;;;;;;;;;;;29.73;35.03;96717.53;4217070;28;5791;-67
2023/08/18 13:30:30;;;;;;;;;;;;;;;29.76;34.08;96725.88;4204026;28;5657;-66
2023/08/18 13:32:35;;;;;;;;;;;;;;;29.77;34.23;96726.66;4216933;28;5688;-66
2023/08/18 13:34:37;;;;;;;;;;;;;;;29.80;34.09;96728.78;4215792;28;5777;-67
2023/08/18 13:36:41;;;;;;;;;;;;;;;29.83;34.44;96728.13;4210457;28;5777;-67
2023/08/18 13:38:43;;;;;;;;;;;;;;;29.82;34.00;96723.81;4209523;28;5108;-67
2023/08/18 13:40:46;;;;;;;;;;;;;;;29.79;33.69;96725.25;4210452;28;5833;-68
2023/08/18 13:42:50;;;;;;;;;;;;;;;29.82;32.95;96721.09;4216602;28;5810;-67
2023/08/18 13:44:53;;;;;;;;;;;;;;;29.81;32.79;96723.00;4213948;28;5774;-67
2023/08/18 13:46:57;;;;;;;;;;;;;;;29.84;32.53;96721.56;4210593;28;5970;-67
2023/08/18 13:49:01;;;;;;;;;;;;;;;29.86;31.84;96716.59;4213754;28;5696;-67
2023/08/18 13:51:04;;;;;;;;;;;;;;;29.89;31.72;96712.41;4213376;28;5783;-67
2023/08/18 13:53:11;;;;;;;;;;;;;;;29.88;31.65;96717.06;4216649;28;5787;-67
2023/08/18 13:55:14;;;;;;;;;;;;;;;29.89;31.22;96713.22;4210808;28;5673;-67
2023/08/18 13:57:18;;;;;;;;;;;;;;;29.93;30.93;96727.03;4214087;28;6743;-67
2023/08/18 13:59:21;;;;;;;;;;;;;;;29.92;30.94;96717.25;4216938;28;5850;-68
2023/08/18 14:01:24;;;;;;;;;;;;;;;29.93;30.87;96718.84;4212093;28;5676;-67
2023/08/18 14:03:27;;;;;;;;;;;;;;;29.92;30.70;96717.25;4209744;28;6034;-68
2023/08/18 14:05:31;;;;;;;;;;;;;;;29.93;30.27;96714.19;4208594;28;5781;-67
2023/08/18 14:07:34;;;;;;;;;;;;;;;29.96;29.90;96716.28;4217498;28;5783;-66
2023/08/18 14:09:37;;;;;;;;;;;;;;;29.97;30.16;96715.16;4216987;28;6356;-67
2023/08/18 14:11:40;;;;;;;;;;;;;;;30.02;29.83;96712.28;4217495;28;5728;-67
2023/08/18 14:13:43;;;;;;;;;;;;;;;30.04;30.01;96709.25;4215016;28;5653;-67
2023/08/18 14:15:46;;;;;;;;;;;;;;;30.01;29.95;96710.66;4212296;28;5750;-67
2023/08/18 14:17:49;;;;;;;;;;;;;;;30.03;29.35;96708.44;4215212;28;7076;-68
2023/08/18 14:19:52;;;;;;;;;;;;;;;30.07;29.37;96711.34;4216037;28;5849;-68
2023/08/18 14:21:56;;;;;;;;;;;;;;;30.09;29.44;96706.38;4217425;28;5811;-67
2023/08/18 14:23:59;;;;;;;;;;;;;;;30.09;29.12;96712.63;4217716;28;5766;-68
2023/08/18 14:26:03;;;;;;;;;;;;;;;30.10;29.35;96703.31;4217739;28;5790;-67
2023/08/18 14:28:06;;;;;;;;;;;;;;;30.07;29.00;96708.63;4209201;28;5865;-67
2023/08/18 14:30:09;;;;;;;;;;;;;;;30.09;29.01;96712.63;4209625;28;5841;-67
2023/08/18 14:32:12;;;;;;;;;;;;;;;30.10;29.06;96703.31;4217530;28;6521;-67
2023/08/18 14:34:15;;;;;;;;;;;;;;;30.14;29.12;96704.31;4217231;28;5780;-67
2023/08/18 14:36:18;;;;;;;;;;;;;;;30.15;29.13;96699.66;4217444;28;5806;-66
2023/08/18 14:38:22;;;;;;;;;;;;;;;30.19;28.72;96702.53;4217327;28;5720;-66
2023/08/18 14:40:25;;;;;;;;;;;;;;;30.24;28.89;96695.00;4217194;28;5705;-66
2023/08/18 14:42:28;;;;;;;;;;;;;;;30.31;28.94;96699.94;4217510;28;5683;-67
2023/08/18 14:44:31;;;;;;;;;;;;;;;30.31;28.95;96691.75;4217530;28;5660;-66
2023/08/18 14:46:34;;;;;;;;;;;;;;;30.30;29.20;96685.50;4215799;28;5793;-67
2023/08/18 14:48:39;;;;;;;;;;;;;;;30.33;29.13;96679.41;4209168;28;6894;-67
2023/08/18 14:50:41;;;;;;;;;;;;;;;30.35;28.81;96670.91;4210815;28;5723;-67
2023/08/18 14:52:45;;;;;;;;;;;;;;;30.39;28.73;96675.41;4213670;28;5680;-66
2023/08/18 14:54:48;;;;;;;;;;;;;;;30.44;28.58;96669.75;4216734;28;5834;-67
2023/08/18 14:56:51;;;;;;;;;;;;;;;30.45;28.83;96665.09;4217223;28;5834;-67
2023/08/18 14:58:54;;;;;;;;;;;;;;;30.45;28.69;96659.66;4216929;28;6574;-67
2023/08/18 15:00:57;;;;;;;;;;;;;;;30.47;28.41;96656.59;4217059;28;5733;-67
2023/08/18 15:03:01;;;;;;;;;;;;;;;30.56;28.04;96655.44;4217051;28;5668;-67
2023/08/18 15:05:05;;;;;;;;;;;;;;;30.61;28.22;96654.50;4208531;28;5664;-67
2023/08/18 15:07:08;;;;;;;;;;;;;;;30.60;28.12;96656.41;4208631;28;5712;-67
2023/08/18 15:09:11;;;;;;;;;;;;;;;30.58;28.18;96653.22;4209038;28;5759;-67
2023/08/18 15:11:15;;;;;;;;;;;;;;;30.60;28.02;96655.63;4208536;28;5664;-67
2023/08/18 15:13:20;;;;;;;;;;;;;;;30.64;27.52;96657.41;4216836;28;5764;-68
2023/08/18 15:15:23;;;;;;;;;;;;;;;30.69;27.60;96659.97;4208342;28;5844;-67
2023/08/18 15:17:26;;;;;;;;;;;;;;;30.66;27.52;96654.34;4216883;28;5665;-68
2023/08/18 15:19:29;;;;;;;;;;;;;;;30.63;27.90;96657.69;4216906;28;5672;-69
2023/08/18 15:21:31;;;;;;;;;;;;;;;30.64;27.67;96648.41;4216833;28;5804;-68
2023/08/18 15:23:34;;;;;;;;;;;;;;;30.64;27.17;96651.94;4212706;28;5682;-68
2023/08/18 15:25:37;;;;;;;;;;;;;;;30.66;27.24;96644.22;4212174;28;5792;-68
2023/08/18 15:27:45;;;;;;;;;;;;;;;30.68;27.25;96639.22;4215496;28;5727;-68
2023/08/18 15:29:48;;;;;;;;;;;;;;;30.69;27.31;96646.31;4208208;28;5656;-68
2023/08/18 15:31:53;;;;;;;;;;;;;;;30.68;27.44;96636.50;4216082;28;5716;-69